Time,TemperatureF,DewpointF,PressureIn,WindDirection,WindDirectionDegrees,WindSpeedMPH,WindSpeedGustMPH,Humidity,HourlyPrecipIn,Conditions,Clouds,dailyrainin,SoftwareType,DateUTC
2013-06-13 00:01:00,73.5,70.4,29.94,WSW,257,0.0,0.0,90,0.00,,,0.00,Wunderground v.1.15,2013-06-13 04:01:00,
2013-06-13 00:02:00,73.4,70.3,29.94,WSW,257,0.0,0.0,90,0.00,,,0.00,Wunderground v.1.15,2013-06-13 04:02:00,
2013-06-13 00:03:00,73.4,70.3,29.94,WSW,257,0.0,0.0,90,0.00,,,0.00,Wunderground v.1.15,2013-06-13 04:03:00,
2013-06-13 00:08:00,73.4,70.6,29.94,WSW,257,0.0,0.0,91,0.00,,,0.00,Wunderground v.1.15,2013-06-13 04:08:00,
2013-06-13 00:14:00,73.3,70.5,29.93,WSW,257,0.0,0.0,91,0.00,,,0.00,Wunderground v.1.15,2013-06-13 04:14:00,
2013-06-13 00:19:00,73.2,70.4,29.93,WSW,257,0.0,0.0,91,0.00,,,0.00,Wunderground v.1.15,2013-06-13 04:19:00,
2013-06-13 00:24:00,73.0,70.2,29.93,WSW,257,0.0,0.0,91,0.00,,,0.00,Wunderground v.1.15,2013-06-13 04:24:00,
2013-06-13 00:29:00,72.9,70.1,29.93,WSW,257,0.0,0.0,91,0.00,,,0.00,Wunderground v.1.15,2013-06-13 04:29:00,
2013-06-13 00:34:00,72.7,69.9,29.93,WSW,257,0.0,0.0,91,0.00,,,0.00,Wunderground v.1.15,2013-06-13 04:34:00,
2013-06-13 00:40:00,72.5,69.7,29.93,WSW,257,0.0,0.0,91,0.00,,,0.00,Wunderground v.1.15,2013-06-13 04:40:00,
2013-06-13 00:45:00,72.4,69.6,29.93,WSW,257,0.0,0.0,91,0.00,,,0.00,Wunderground v.1.15,2013-06-13 04:45:00,
2013-06-13 00:50:00,72.3,69.8,29.93,WSW,257,0.0,0.0,92,0.00,,,0.00,Wunderground v.1.15,2013-06-13 04:50:00,
2013-06-13 00:55:00,72.2,69.7,29.93,WSW,257,0.0,0.0,92,0.00,,,0.00,Wunderground v.1.15,2013-06-13 04:55:00,
2013-06-13 01:00:00,72.1,69.6,29.93,WSW,257,0.0,0.0,92,0.00,,,0.00,Wunderground v.1.15,2013-06-13 05:00:00,
2013-06-13 01:06:00,71.9,69.4,29.93,WSW,257,0.0,0.0,92,0.00,,,0.00,Wunderground v.1.15,2013-06-13 05:06:00,
2013-06-13 01:11:00,71.8,69.3,29.93,WSW,257,0.0,0.0,92,0.00,,,0.00,Wunderground v.1.15,2013-06-13 05:11:00,
2013-06-13 01:16:00,71.6,69.2,29.92,WSW,257,0.0,0.0,92,0.00,,,0.00,Wunderground v.1.15,2013-06-13 05:16:00,
2013-06-13 01:21:00,71.5,69.1,29.92,WSW,257,0.0,0.0,92,0.00,,,0.00,Wunderground v.1.15,2013-06-13 05:21:00,
2013-06-13 01:26:00,71.4,69.0,29.92,WSW,257,0.0,0.0,92,0.00,,,0.00,Wunderground v.1.15,2013-06-13 05:26:00,
2013-06-13 01:32:00,71.3,68.9,29.92,WSW,257,0.0,0.0,92,0.00,,,0.00,Wunderground v.1.15,2013-06-13 05:32:00,
2013-06-13 01:37:00,71.3,68.9,29.92,WSW,257,0.0,0.0,92,0.00,,,0.00,Wunderground v.1.15,2013-06-13 05:37:00,
2013-06-13 01:42:00,71.2,69.1,29.92,WSW,257,0.0,0.0,93,0.00,,,0.00,Wunderground v.1.15,2013-06-13 05:42:00,
2013-06-13 01:47:00,71.1,69.0,29.92,WSW,257,0.0,0.0,93,0.00,,,0.00,Wunderground v.1.15,2013-06-13 05:47:00,
2013-06-13 01:52:00,71.0,68.9,29.92,WSW,257,0.0,0.0,93,0.00,,,0.00,Wunderground v.1.15,2013-06-13 05:52:00,
2013-06-13 01:57:00,70.9,68.8,29.92,WSW,257,0.0,0.0,93,0.00,,,0.00,Wunderground v.1.15,2013-06-13 05:57:00,
2013-06-13 02:02:00,70.8,68.7,29.92,WSW,257,0.0,0.0,93,0.00,,,0.00,Wunderground v.1.15,2013-06-13 06:02:00,
2013-06-13 02:07:00,70.8,68.7,29.92,WSW,257,0.0,0.0,93,0.00,,,0.00,Wunderground v.1.15,2013-06-13 06:07:00,
2013-06-13 02:12:00,70.6,68.5,29.91,WSW,257,0.0,0.0,93,0.00,,,0.00,Wunderground v.1.15,2013-06-13 06:12:00,
2013-06-13 02:17:00,70.5,68.4,29.92,WSW,257,0.0,0.0,93,0.00,,,0.00,Wunderground v.1.15,2013-06-13 06:17:00,
2013-06-13 02:22:00,70.4,68.3,29.92,WSW,257,0.0,0.0,93,0.00,,,0.00,Wunderground v.1.15,2013-06-13 06:22:00,
2013-06-13 02:27:00,70.3,68.2,29.92,WSW,257,0.0,0.0,93,0.00,,,0.00,Wunderground v.1.15,2013-06-13 06:27:00,
2013-06-13 02:32:00,70.3,68.2,29.92,WSW,257,0.0,0.0,93,0.00,,,0.00,Wunderground v.1.15,2013-06-13 06:32:00,
2013-06-13 02:37:00,70.3,68.2,29.92,WSW,257,0.0,0.0,93,0.00,,,0.00,Wunderground v.1.15,2013-06-13 06:37:00,
2013-06-13 02:42:00,70.2,68.1,29.92,WSW,257,0.0,0.0,93,0.00,,,0.00,Wunderground v.1.15,2013-06-13 06:42:00,
2013-06-13 02:47:00,70.1,68.0,29.92,WSW,257,0.0,0.0,93,0.00,,,0.00,Wunderground v.1.15,2013-06-13 06:47:00,
2013-06-13 02:52:00,70.0,67.9,29.92,WSW,257,0.0,0.0,93,0.00,,,0.00,Wunderground v.1.15,2013-06-13 06:52:00,
2013-06-13 02:57:00,69.9,67.8,29.92,WSW,257,0.0,0.0,93,0.00,,,0.00,Wunderground v.1.15,2013-06-13 06:57:00,
2013-06-13 03:02:00,69.7,67.6,29.92,WSW,257,0.0,1.0,93,0.00,,,0.00,Wunderground v.1.15,2013-06-13 07:02:00,
2013-06-13 03:07:00,69.7,67.6,29.92,WSW,257,0.0,1.0,93,0.00,,,0.00,Wunderground v.1.15,2013-06-13 07:07:00,
2013-06-13 03:12:00,69.7,67.9,29.92,WSW,257,0.0,0.0,94,0.00,,,0.00,Wunderground v.1.15,2013-06-13 07:12:00,
2013-06-13 03:17:00,69.6,67.8,29.92,WSW,257,0.0,0.0,94,0.00,,,0.00,Wunderground v.1.15,2013-06-13 07:17:00,
2013-06-13 07:26:00,70.5,69.0,29.88,West,279,0.0,0.0,95,0.00,,,0.00,Wunderground v.1.15,2013-06-13 11:26:00,
2013-06-13 07:31:00,71.0,69.5,29.88,West,279,0.0,0.0,95,0.00,,,0.00,Wunderground v.1.15,2013-06-13 11:31:00,
2013-06-13 07:36:00,71.6,70.1,29.88,WNW,302,0.0,0.0,95,0.00,,,0.00,Wunderground v.1.15,2013-06-13 11:36:00,
2013-06-13 07:41:00,72.2,70.7,29.88,NW,305,0.0,0.0,95,0.00,,,0.00,Wunderground v.1.15,2013-06-13 11:41:00,
2013-06-13 07:46:00,72.5,70.7,29.88,NW,309,0.0,0.0,94,0.00,,,0.00,Wunderground v.1.15,2013-06-13 11:46:00,
2013-06-13 07:51:00,73.0,70.9,29.88,SSE,164,0.0,0.0,93,0.00,,,0.00,Wunderground v.1.15,2013-06-13 11:51:00,
2013-06-13 07:56:00,73.2,70.4,29.88,SSE,164,0.0,0.0,91,0.00,,,0.00,Wunderground v.1.15,2013-06-13 11:56:00,
2013-06-13 08:01:00,73.5,70.7,29.88,SSE,164,0.0,0.0,91,0.00,,,0.00,Wunderground v.1.15,2013-06-13 12:01:00,
2013-06-13 08:06:00,74.2,71.1,29.88,SSE,164,0.0,0.0,90,0.00,,,0.00,Wunderground v.1.15,2013-06-13 12:06:00,
2013-06-13 08:11:00,74.8,71.3,29.88,West,265,0.0,0.0,89,0.00,,,0.00,Wunderground v.1.15,2013-06-13 12:11:00,
2013-06-13 08:16:00,75.6,71.5,29.88,NW,311,0.0,1.0,87,0.00,,,0.00,Wunderground v.1.15,2013-06-13 12:16:00,
2013-06-13 08:21:00,76.0,71.2,29.88,WNW,288,1.0,1.0,85,0.00,,,0.00,Wunderground v.1.15,2013-06-13 12:21:00,
2013-06-13 08:26:00,76.4,71.6,29.88,WNW,294,0.0,3.0,85,0.00,,,0.00,Wunderground v.1.15,2013-06-13 12:26:00,
2013-06-13 08:31:00,77.2,71.6,29.88,WNW,294,0.0,1.0,83,0.00,,,0.00,Wunderground v.1.15,2013-06-13 12:31:00,
2013-06-13 08:36:00,77.5,71.6,29.88,WNW,290,0.0,1.0,82,0.00,,,0.00,Wunderground v.1.15,2013-06-13 12:36:00,
2013-06-13 08:41:00,77.7,71.0,29.88,WNW,290,0.0,0.0,80,0.00,,,0.00,Wunderground v.1.15,2013-06-13 12:41:00,
2013-06-13 08:46:00,78.0,71.0,29.88,NNW,328,1.0,4.0,79,0.00,,,0.00,Wunderground v.1.15,2013-06-13 12:46:00,
2013-06-13 08:51:00,78.3,71.2,29.88,NW,323,1.0,1.0,79,0.00,,,0.00,Wunderground v.1.15,2013-06-13 12:51:00,
2013-06-13 08:56:00,78.1,69.9,29.88,ENE,77,0.0,4.0,76,0.00,,,0.00,Wunderground v.1.15,2013-06-13 12:56:00,
2013-06-13 09:01:00,78.1,69.9,29.87,West,279,0.0,5.0,76,0.00,,,0.00,Wunderground v.1.15,2013-06-13 13:01:00,
2013-06-13 09:06:00,78.1,69.5,29.87,WNW,282,0.0,8.0,75,0.00,,,0.00,Wunderground v.1.15,2013-06-13 13:06:00,
2013-06-13 09:11:00,78.0,69.4,29.87,ESE,115,0.0,3.0,75,0.00,,,0.00,Wunderground v.1.15,2013-06-13 13:11:00,
2013-06-13 09:16:00,78.0,70.2,29.87,NNW,327,0.0,7.0,77,0.00,,,0.00,Wunderground v.1.15,2013-06-13 13:16:00,
2013-06-13 09:21:00,78.3,70.1,29.86,NNW,336,0.0,6.0,76,0.00,,,0.00,Wunderground v.1.15,2013-06-13 13:21:00,
2013-06-13 09:26:00,78.7,70.9,29.87,NW,310,0.0,6.0,77,0.00,,,0.00,Wunderground v.1.15,2013-06-13 13:26:00,
2013-06-13 09:31:00,78.7,70.1,29.86,NNW,338,0.0,5.0,75,0.00,,,0.00,Wunderground v.1.15,2013-06-13 13:31:00,
2013-06-13 09:36:00,78.7,69.7,29.86,NNW,329,4.0,8.0,74,0.00,,,0.00,Wunderground v.1.15,2013-06-13 13:36:00,
2013-06-13 09:41:00,78.4,69.8,29.86,NW,315,1.0,6.0,75,0.00,,,0.00,Wunderground v.1.15,2013-06-13 13:41:00,
2013-06-13 09:46:00,78.5,69.9,29.86,NNW,339,0.0,6.0,75,0.00,,,0.00,Wunderground v.1.15,2013-06-13 13:46:00,
2013-06-13 09:51:00,78.6,70.0,29.86,NNW,341,7.0,7.0,75,0.00,,,0.00,Wunderground v.1.15,2013-06-13 13:51:00,
2013-06-13 09:56:00,78.6,70.0,29.85,West,263,0.0,7.0,75,0.00,,,0.00,Wunderground v.1.15,2013-06-13 13:56:00,
2013-06-13 10:02:00,78.5,69.9,29.85,South,185,0.0,7.0,75,0.00,,,0.00,Wunderground v.1.15,2013-06-13 14:02:00,
2013-06-13 10:07:00,78.2,69.6,29.85,NE,54,2.0,9.0,75,0.00,,,0.00,Wunderground v.1.15,2013-06-13 14:07:00,
2013-06-13 10:12:00,78.3,70.9,29.84,SW,214,3.0,3.0,78,0.00,,,0.00,Wunderground v.1.15,2013-06-13 14:12:00,
2013-06-13 10:17:00,78.6,69.6,29.84,WNW,301,0.0,7.0,74,0.00,,,0.00,Wunderground v.1.15,2013-06-13 14:17:00,
2013-06-13 10:22:00,78.8,70.2,29.84,South,189,3.0,3.0,75,0.00,,,0.00,Wunderground v.1.15,2013-06-13 14:22:00,
2013-06-13 10:27:00,79.1,69.7,29.84,WSW,242,3.0,8.0,73,0.00,,,0.00,Wunderground v.1.15,2013-06-13 14:27:00,
2013-06-13 10:32:00,79.6,70.2,29.84,NW,323,7.0,14.0,73,0.00,,,0.00,Wunderground v.1.15,2013-06-13 14:32:00,
2013-06-13 10:37:00,79.8,70.0,29.83,West,273,3.0,14.0,72,0.00,,,0.00,Wunderground v.1.15,2013-06-13 14:37:00,
2013-06-13 10:42:00,79.9,69.7,29.83,West,259,0.0,8.0,71,0.00,,,0.00,Wunderground v.1.15,2013-06-13 14:42:00,
2013-06-13 10:47:00,80.2,69.9,29.83,WNW,297,4.0,9.0,71,0.00,,,0.00,Wunderground v.1.15,2013-06-13 14:47:00,
2013-06-13 10:52:00,80.6,69.9,29.83,West,279,0.0,7.0,70,0.00,,,0.00,Wunderground v.1.15,2013-06-13 14:52:00,
2013-06-13 10:57:00,81.1,70.0,29.82,WNW,294,0.0,8.0,69,0.00,,,0.00,Wunderground v.1.15,2013-06-13 14:57:00,
2013-06-13 11:02:00,81.6,69.6,29.82,WNW,286,0.0,12.0,67,0.00,,,0.00,Wunderground v.1.15,2013-06-13 15:02:00,
2013-06-13 11:07:00,82.0,69.5,29.82,West,278,5.0,12.0,66,0.00,,,0.00,Wunderground v.1.15,2013-06-13 15:07:00,
2013-06-13 11:12:00,81.9,69.0,29.82,West,275,0.0,13.0,65,0.00,,,0.00,Wunderground v.1.15,2013-06-13 15:12:00,
2013-06-13 11:17:00,81.5,68.6,29.82,NNW,339,6.0,14.0,65,0.00,,,0.00,Wunderground v.1.15,2013-06-13 15:17:00,
2013-06-13 11:22:00,81.7,70.1,29.82,WNW,286,0.0,5.0,68,0.00,,,0.00,Wunderground v.1.15,2013-06-13 15:22:00,
2013-06-13 11:27:00,82.0,69.5,29.82,NNE,17,3.0,13.0,66,0.00,,,0.00,Wunderground v.1.15,2013-06-13 15:27:00,
2013-06-13 11:32:00,82.0,69.1,29.82,WSW,240,2.0,7.0,65,0.00,,,0.00,Wunderground v.1.15,2013-06-13 15:32:00,
2013-06-13 11:37:00,82.3,69.8,29.82,WNW,291,2.0,11.0,66,0.00,,,0.00,Wunderground v.1.15,2013-06-13 15:37:00,
2013-06-13 11:42:00,82.3,68.9,29.82,NNE,14,0.0,16.0,64,0.00,,,0.00,Wunderground v.1.15,2013-06-13 15:42:00,
2013-06-13 11:47:00,82.4,69.4,29.81,WNW,297,0.0,16.0,65,0.00,,,0.00,Wunderground v.1.15,2013-06-13 15:47:00,
2013-06-13 11:52:00,82.5,68.6,29.81,NW,314,6.0,11.0,63,0.00,,,0.00,Wunderground v.1.15,2013-06-13 15:52:00,
2013-06-13 11:57:00,82.7,68.8,29.81,North,9,0.0,12.0,63,0.00,,,0.00,Wunderground v.1.15,2013-06-13 15:57:00,
2013-06-13 12:02:00,82.8,67.5,29.81,WSW,240,2.0,6.0,60,0.00,,,0.00,Wunderground v.1.15,2013-06-13 16:02:00,
2013-06-13 12:07:00,83.0,69.1,29.80,NW,325,7.0,12.0,63,0.00,,,0.00,Wunderground v.1.15,2013-06-13 16:07:00,
2013-06-13 12:12:00,83.0,67.2,29.81,SSE,149,4.0,17.0,59,0.00,,,0.00,Wunderground v.1.15,2013-06-13 16:12:00,
2013-06-13 12:17:00,83.3,68.4,29.80,WNW,297,4.0,17.0,61,0.00,,,0.00,Wunderground v.1.15,2013-06-13 16:17:00,
2013-06-13 12:22:00,83.3,67.5,29.80,NNW,336,0.0,13.0,59,0.00,,,0.00,Wunderground v.1.15,2013-06-13 16:22:00,
2013-06-13 12:27:00,83.0,68.2,29.80,WNW,302,3.0,13.0,61,0.00,,,0.00,Wunderground v.1.15,2013-06-13 16:27:00,
2013-06-13 12:32:00,83.4,68.1,29.80,WSW,242,3.0,10.0,60,0.00,,,0.00,Wunderground v.1.15,2013-06-13 16:32:00,
2013-06-13 12:37:00,83.7,69.8,29.80,NNW,348,5.0,10.0,63,0.00,,,0.00,Wunderground v.1.15,2013-06-13 16:37:00,
2013-06-13 12:42:00,84.1,69.7,29.79,NNW,327,0.0,6.0,62,0.00,,,0.00,Wunderground v.1.15,2013-06-13 16:42:00,
2013-06-13 12:47:00,84.0,71.9,29.79,WSW,243,0.0,7.0,67,0.00,,,0.00,Wunderground v.1.15,2013-06-13 16:47:00,
2013-06-13 12:52:00,84.1,70.1,29.78,WSW,251,0.0,5.0,63,0.00,,,0.00,Wunderground v.1.15,2013-06-13 16:52:00,
2013-06-13 12:57:00,84.0,69.6,29.78,NNW,343,0.0,12.0,62,0.00,,,0.00,Wunderground v.1.15,2013-06-13 16:57:00,
2013-06-13 13:02:00,83.5,69.6,29.78,NNW,342,7.0,11.0,63,0.00,,,0.00,Wunderground v.1.15,2013-06-13 17:02:00,
2013-06-13 13:07:00,83.1,69.7,29.77,SW,225,0.0,11.0,64,0.00,,,0.00,Wunderground v.1.15,2013-06-13 17:07:00,
2013-06-13 13:12:00,83.1,70.1,29.77,SW,220,0.0,8.0,65,0.00,,,0.00,Wunderground v.1.15,2013-06-13 17:12:00,
2013-06-13 13:17:00,83.2,70.2,29.77,WSW,247,0.0,8.0,65,0.00,,,0.00,Wunderground v.1.15,2013-06-13 17:17:00,
2013-06-13 13:22:00,83.2,70.2,29.77,WSW,242,0.0,9.0,65,0.00,,,0.00,Wunderground v.1.15,2013-06-13 17:22:00,
2013-06-13 13:27:00,83.5,70.0,29.77,NW,305,6.0,9.0,64,0.00,,,0.00,Wunderground v.1.15,2013-06-13 17:27:00,
2013-06-13 13:32:00,84.3,70.8,29.77,NNE,25,5.0,7.0,64,0.00,,,0.00,Wunderground v.1.15,2013-06-13 17:32:00,
2013-06-13 13:37:00,84.8,69.9,29.77,SSE,150,4.0,7.0,61,0.00,,,0.00,Wunderground v.1.15,2013-06-13 17:37:00,
2013-06-13 13:42:00,84.5,70.5,29.76,North,5,0.0,7.0,63,0.00,,,0.00,Wunderground v.1.15,2013-06-13 17:42:00,
2013-06-13 13:47:00,83.9,69.5,29.76,WSW,243,3.0,10.0,62,0.00,,,0.00,Wunderground v.1.15,2013-06-13 17:47:00,
2013-06-13 13:52:00,83.4,69.9,29.76,West,278,0.0,6.0,64,0.00,,,0.00,Wunderground v.1.15,2013-06-13 17:52:00,
2013-06-13 13:57:00,83.5,70.0,29.76,SW,221,1.0,15.0,64,0.00,,,0.00,Wunderground v.1.15,2013-06-13 17:57:00,
2013-06-13 14:02:00,83.4,70.4,29.76,SW,215,2.0,6.0,65,0.00,,,0.00,Wunderground v.1.15,2013-06-13 18:02:00,
2013-06-13 14:07:00,83.2,69.3,29.76,SW,226,4.0,11.0,63,0.00,,,0.00,Wunderground v.1.15,2013-06-13 18:07:00,
2013-06-13 14:12:00,83.3,70.3,29.76,West,265,5.0,7.0,65,0.00,,,0.00,Wunderground v.1.15,2013-06-13 18:12:00,
2013-06-13 14:17:00,83.3,69.8,29.76,WSW,255,4.0,10.0,64,0.00,,,0.00,Wunderground v.1.15,2013-06-13 18:17:00,
2013-06-13 14:22:00,83.2,70.7,29.76,SW,225,1.0,8.0,66,0.00,,,0.00,Wunderground v.1.15,2013-06-13 18:22:00,
2013-06-13 14:27:00,83.4,70.8,29.76,West,275,4.0,8.0,66,0.00,,,0.00,Wunderground v.1.15,2013-06-13 18:27:00,
2013-06-13 14:32:00,83.8,70.8,29.75,WSW,241,0.0,5.0,65,0.00,,,0.00,Wunderground v.1.15,2013-06-13 18:32:00,
2013-06-13 14:37:00,83.8,70.8,29.75,WSW,242,4.0,5.0,65,0.00,,,0.00,Wunderground v.1.15,2013-06-13 18:37:00,
2013-06-13 14:42:00,83.1,70.6,29.75,NNW,339,9.0,11.0,66,0.00,,,0.00,Wunderground v.1.15,2013-06-13 18:42:00,
2013-06-13 14:47:00,82.7,71.1,29.75,NW,312,4.0,11.0,68,0.00,,,0.00,Wunderground v.1.15,2013-06-13 18:47:00,
2013-06-13 14:52:00,82.7,71.1,29.75,NNW,348,8.0,8.0,68,0.00,,,0.00,Wunderground v.1.15,2013-06-13 18:52:00,
2013-06-13 14:57:00,82.5,70.9,29.74,WNW,300,6.0,10.0,68,0.00,,,0.00,Wunderground v.1.15,2013-06-13 18:57:00,
2013-06-13 15:02:00,82.6,71.4,29.74,West,273,1.0,12.0,69,0.00,,,0.00,Wunderground v.1.15,2013-06-13 19:02:00,
2013-06-13 15:07:00,82.7,71.5,29.74,SW,227,2.0,12.0,69,0.00,,,0.00,Wunderground v.1.15,2013-06-13 19:07:00,
2013-06-13 15:12:00,82.6,71.4,29.74,SW,236,0.0,8.0,69,0.00,,,0.00,Wunderground v.1.15,2013-06-13 19:12:00,
2013-06-13 15:17:00,82.9,71.7,29.73,West,267,0.0,8.0,69,0.00,,,0.00,Wunderground v.1.15,2013-06-13 19:17:00,
2013-06-13 15:22:00,83.1,71.4,29.73,West,266,0.0,6.0,68,0.00,,,0.00,Wunderground v.1.15,2013-06-13 19:22:00,
2013-06-13 15:27:00,83.0,71.8,29.74,West,261,3.0,9.0,69,0.00,,,0.00,Wunderground v.1.15,2013-06-13 19:27:00,
2013-06-13 15:32:00,83.2,71.1,29.73,East,94,5.0,16.0,67,0.00,,,0.00,Wunderground v.1.15,2013-06-13 19:32:00,
2013-06-13 15:37:00,83.0,70.5,29.74,WNW,292,0.0,16.0,66,0.00,,,0.00,Wunderground v.1.15,2013-06-13 19:37:00,
2013-06-13 15:42:00,82.9,71.3,29.73,WSW,254,3.0,7.0,68,0.00,,,0.00,Wunderground v.1.15,2013-06-13 19:42:00,
2013-06-13 15:47:00,83.1,71.0,29.73,NW,314,3.0,12.0,67,0.00,,,0.00,Wunderground v.1.15,2013-06-13 19:47:00,
2013-06-13 15:52:00,83.1,71.0,29.72,WSW,253,2.0,13.0,67,0.00,,,0.00,Wunderground v.1.15,2013-06-13 19:52:00,
2013-06-13 15:57:00,82.9,70.4,29.72,WNW,285,3.0,13.0,66,0.00,,,0.00,Wunderground v.1.15,2013-06-13 19:57:00,
2013-06-13 16:02:00,83.3,71.6,29.72,WSW,244,0.0,7.0,68,0.00,,,0.00,Wunderground v.1.15,2013-06-13 20:02:00,
2013-06-13 16:07:00,83.6,71.0,29.71,NW,306,2.0,14.0,66,0.00,,,0.00,Wunderground v.1.15,2013-06-13 20:07:00,
2013-06-13 16:12:00,83.3,71.6,29.70,WNW,297,0.0,5.0,68,0.00,,,0.00,Wunderground v.1.15,2013-06-13 20:12:00,
2013-06-13 16:17:00,82.9,71.7,29.70,South,184,4.0,9.0,69,0.00,,,0.00,Wunderground v.1.15,2013-06-13 20:17:00,
2013-06-13 16:22:00,82.9,72.5,29.70,West,279,2.0,11.0,71,0.00,,,0.00,Wunderground v.1.15,2013-06-13 20:22:00,
2013-06-13 16:27:00,83.4,71.7,29.70,WNW,296,6.0,11.0,68,0.00,,,0.00,Wunderground v.1.15,2013-06-13 20:27:00,
2013-06-13 16:32:00,83.6,71.5,29.70,ESE,107,0.0,13.0,67,0.00,,,0.00,Wunderground v.1.15,2013-06-13 20:32:00,
2013-06-13 16:37:00,83.2,72.4,29.69,South,186,4.0,13.0,70,0.00,,,0.00,Wunderground v.1.15,2013-06-13 20:37:00,
2013-06-13 16:42:00,82.7,73.6,29.68,WNW,293,0.0,7.0,74,0.00,,,0.00,Wunderground v.1.15,2013-06-13 20:42:00,
2013-06-13 16:47:00,82.6,72.2,29.69,North,355,0.0,11.0,71,0.00,,,0.01,Wunderground v.1.15,2013-06-13 20:47:00,
2013-06-13 16:52:00,82.6,72.7,29.69,WNW,284,3.0,9.0,72,0.00,,,0.01,Wunderground v.1.15,2013-06-13 20:52:00,
2013-06-13 16:57:00,82.6,71.8,29.68,West,264,10.0,12.0,70,0.00,,,0.01,Wunderground v.1.15,2013-06-13 20:57:00,
2013-06-13 17:02:00,82.3,71.5,29.68,NW,313,2.0,5.0,70,0.00,,,0.01,Wunderground v.1.15,2013-06-13 21:02:00,
2013-06-13 17:07:00,81.9,72.0,29.69,SSW,209,0.0,6.0,72,0.00,,,0.01,Wunderground v.1.15,2013-06-13 21:07:00,
2013-06-13 17:12:00,81.4,71.5,29.70,West,271,0.0,4.0,72,0.00,,,0.01,Wunderground v.1.15,2013-06-13 21:12:00,
2013-06-13 17:17:00,81.1,71.6,29.70,North,11,0.0,4.0,73,0.00,,,0.01,Wunderground v.1.15,2013-06-13 21:17:00,
2013-06-13 17:22:00,80.8,71.7,29.69,South,172,0.0,5.0,74,0.00,,,0.01,Wunderground v.1.15,2013-06-13 21:22:00,
2013-06-13 17:27:00,80.6,71.9,29.69,South,172,0.0,5.0,75,0.00,,,0.01,Wunderground v.1.15,2013-06-13 21:27:00,
2013-06-13 17:32:00,80.2,72.7,29.68,South,172,0.0,1.0,78,0.00,,,0.01,Wunderground v.1.15,2013-06-13 21:32:00,
2013-06-13 17:37:00,79.5,71.3,29.75,SW,231,10.0,19.0,76,9.76,,,0.09,Wunderground v.1.15,2013-06-13 21:37:00,
2013-06-13 17:42:00,76.1,68.7,29.74,NW,311,8.0,14.0,78,0.33,,,0.19,Wunderground v.1.15,2013-06-13 21:42:00,
2013-06-13 17:47:00,73.3,67.1,29.76,SW,232,4.0,15.0,81,0.16,,,0.21,Wunderground v.1.15,2013-06-13 21:47:00,
2013-06-13 17:52:00,71.5,66.4,29.75,NNW,339,9.0,13.0,84,0.19,,,0.22,Wunderground v.1.15,2013-06-13 21:52:00,
2013-06-13 17:57:00,70.5,65.8,29.74,NNE,27,1.0,13.0,85,0.08,,,0.22,Wunderground v.1.15,2013-06-13 21:57:00,
2013-06-13 18:02:00,70.2,66.5,29.76,SW,221,0.0,4.0,88,0.05,,,0.22,Wunderground v.1.15,2013-06-13 22:02:00,
2013-06-13 18:07:00,70.2,66.8,29.76,SW,215,0.0,4.0,89,0.61,,,0.25,Wunderground v.1.15,2013-06-13 22:07:00,
2013-06-13 18:12:00,70.3,67.2,29.76,SSW,201,0.0,4.0,90,0.13,,,0.26,Wunderground v.1.15,2013-06-13 22:12:00,
2013-06-13 18:17:00,70.3,67.2,29.76,SSW,203,2.0,5.0,90,0.06,,,0.26,Wunderground v.1.15,2013-06-13 22:17:00,
2013-06-13 18:22:00,70.2,67.4,29.75,SSW,205,0.0,5.0,91,0.04,,,0.26,Wunderground v.1.15,2013-06-13 22:22:00,
2013-06-13 18:27:00,70.2,67.4,29.74,South,180,0.0,5.0,91,0.00,,,0.26,Wunderground v.1.15,2013-06-13 22:27:00,
2013-06-13 18:32:00,70.2,67.8,29.76,SSW,192,0.0,6.0,92,0.00,,,0.27,Wunderground v.1.15,2013-06-13 22:32:00,
2013-06-13 18:37:00,70.1,67.7,29.77,SW,217,0.0,6.0,92,0.00,,,0.27,Wunderground v.1.15,2013-06-13 22:37:00,
2013-06-13 18:42:00,70.1,67.7,29.76,SW,224,0.0,5.0,92,0.00,,,0.27,Wunderground v.1.15,2013-06-13 22:42:00,
2013-06-13 18:47:00,70.1,67.7,29.76,SSW,195,0.0,6.0,92,0.00,,,0.27,Wunderground v.1.15,2013-06-13 22:47:00,
2013-06-13 18:52:00,70.1,67.7,29.74,SW,227,1.0,5.0,92,0.00,,,0.27,Wunderground v.1.15,2013-06-13 22:52:00,
2013-06-13 18:57:00,70.1,67.7,29.74,SSW,211,3.0,6.0,92,0.00,,,0.27,Wunderground v.1.15,2013-06-13 22:57:00,
2013-06-13 19:02:00,70.1,67.7,29.74,SW,221,1.0,6.0,92,0.00,,,0.27,Wunderground v.1.15,2013-06-13 23:02:00,
2013-06-13 19:07:00,70.1,67.7,29.73,SW,214,0.0,6.0,92,0.00,,,0.27,Wunderground v.1.15,2013-06-13 23:07:00,
2013-06-13 19:12:00,70.1,67.7,29.74,South,187,0.0,4.0,92,0.00,,,0.27,Wunderground v.1.15,2013-06-13 23:12:00,
2013-06-13 19:17:00,70.2,68.1,29.75,SSE,167,0.0,4.0,93,0.00,,,0.27,Wunderground v.1.15,2013-06-13 23:17:00,
2013-06-13 19:22:00,70.2,68.1,29.75,South,186,1.0,5.0,93,0.00,,,0.27,Wunderground v.1.15,2013-06-13 23:22:00,
2013-06-13 19:27:00,70.3,68.2,29.74,SW,219,0.0,5.0,93,0.00,,,0.27,Wunderground v.1.15,2013-06-13 23:27:00,
2013-06-13 19:32:00,70.3,68.2,29.74,SW,219,0.0,1.0,93,0.00,,,0.27,Wunderground v.1.15,2013-06-13 23:32:00,
2013-06-13 19:37:00,70.3,68.2,29.74,SSW,202,0.0,4.0,93,0.00,,,0.27,Wunderground v.1.15,2013-06-13 23:37:00,
2013-06-13 19:42:00,70.3,68.2,29.75,SSW,211,4.0,5.0,93,0.00,,,0.27,Wunderground v.1.15,2013-06-13 23:42:00,
2013-06-13 19:47:00,70.3,68.2,29.74,SSW,200,3.0,6.0,93,0.00,,,0.27,Wunderground v.1.15,2013-06-13 23:47:00,
2013-06-13 19:52:00,70.2,68.1,29.74,SSW,205,0.0,4.0,93,0.00,,,0.27,Wunderground v.1.15,2013-06-13 23:52:00,
2013-06-13 19:57:00,70.2,68.1,29.75,SSW,206,0.0,4.0,93,0.00,,,0.27,Wunderground v.1.15,2013-06-13 23:57:00,
2013-06-13 20:02:00,70.2,68.1,29.75,SSW,204,2.0,4.0,93,0.00,,,0.27,Wunderground v.1.15,2013-06-14 00:02:00,
2013-06-13 20:07:00,70.3,68.2,29.76,SSW,204,3.0,5.0,93,0.00,,,0.27,Wunderground v.1.15,2013-06-14 00:07:00,
2013-06-13 20:12:00,70.3,68.2,29.76,SSW,212,0.0,4.0,93,0.00,,,0.27,Wunderground v.1.15,2013-06-14 00:12:00,
2013-06-13 20:17:00,70.3,68.2,29.76,SSW,211,2.0,7.0,93,0.00,,,0.27,Wunderground v.1.15,2013-06-14 00:17:00,
2013-06-13 20:22:00,70.3,68.2,29.75,SSW,194,0.0,6.0,93,0.00,,,0.27,Wunderground v.1.15,2013-06-14 00:22:00,
2013-06-13 20:27:00,70.4,68.3,29.75,North,360,0.0,6.0,93,0.00,,,0.27,Wunderground v.1.15,2013-06-14 00:27:00,
2013-06-13 20:32:00,70.4,68.3,29.74,SW,229,0.0,3.0,93,0.00,,,0.27,Wunderground v.1.15,2013-06-14 00:32:00,
2013-06-13 20:37:00,70.4,68.3,29.75,SW,229,0.0,3.0,93,0.00,,,0.27,Wunderground v.1.15,2013-06-14 00:37:00,
2013-06-13 20:42:00,70.3,68.2,29.74,SW,229,0.0,2.0,93,0.00,,,0.27,Wunderground v.1.15,2013-06-14 00:42:00,
2013-06-13 20:47:00,70.2,68.1,29.75,SSW,209,0.0,5.0,93,0.00,,,0.27,Wunderground v.1.15,2013-06-14 00:47:00,
2013-06-13 20:52:00,70.1,68.0,29.76,SSW,202,1.0,6.0,93,0.00,,,0.27,Wunderground v.1.15,2013-06-14 00:52:00,
2013-06-13 20:57:00,70.0,67.9,29.76,SSW,196,3.0,7.0,93,0.00,,,0.27,Wunderground v.1.15,2013-06-14 00:57:00,
2013-06-13 21:02:00,70.0,67.9,29.75,SSW,196,0.0,6.0,93,0.00,,,0.27,Wunderground v.1.15,2013-06-14 01:02:00,
2013-06-13 21:07:00,69.9,67.8,29.75,South,188,0.0,6.0,93,0.00,,,0.27,Wunderground v.1.15,2013-06-14 01:07:00,
2013-06-13 21:12:00,69.9,67.5,29.75,SSW,196,0.0,5.0,92,0.00,,,0.27,Wunderground v.1.15,2013-06-14 01:12:00,
2013-06-13 21:17:00,69.8,67.4,29.75,SSW,199,0.0,5.0,92,0.00,,,0.27,Wunderground v.1.15,2013-06-14 01:17:00,
2013-06-13 21:23:00,69.7,67.3,29.76,SSW,203,0.0,2.0,92,0.00,,,0.27,Wunderground v.1.15,2013-06-14 01:23:00,
2013-06-13 21:27:00,69.6,67.2,29.76,SSW,205,1.0,2.0,92,0.00,,,0.27,Wunderground v.1.15,2013-06-14 01:27:00,
2013-06-13 21:32:00,69.6,67.2,29.77,SSW,208,0.0,0.0,92,0.00,,,0.27,Wunderground v.1.15,2013-06-14 01:32:00,
2013-06-13 21:38:00,69.5,67.1,29.77,SSW,208,0.0,1.0,92,0.00,,,0.27,Wunderground v.1.15,2013-06-14 01:38:00,
2013-06-13 21:43:00,69.4,67.0,29.77,SSW,201,0.0,3.0,92,0.00,,,0.27,Wunderground v.1.15,2013-06-14 01:43:00,
2013-06-13 21:48:00,69.4,67.3,29.76,SW,234,4.0,5.0,93,0.00,,,0.27,Wunderground v.1.15,2013-06-14 01:48:00,
2013-06-13 21:53:00,69.3,67.2,29.77,West,269,3.0,4.0,93,0.00,,,0.27,Wunderground v.1.15,2013-06-14 01:53:00,
2013-06-13 21:58:00,69.2,67.1,29.77,WSW,246,1.0,4.0,93,0.00,,,0.27,Wunderground v.1.15,2013-06-14 01:58:00,
2013-06-13 22:03:00,69.2,67.1,29.77,SW,235,3.0,4.0,93,0.00,,,0.27,Wunderground v.1.15,2013-06-14 02:03:00,
2013-06-13 22:07:00,69.1,67.0,29.77,SW,221,5.0,7.0,93,0.00,,,0.27,Wunderground v.1.15,2013-06-14 02:07:00,
2013-06-13 22:12:00,69.2,67.1,29.78,South,173,0.0,8.0,93,0.00,,,0.27,Wunderground v.1.15,2013-06-14 02:12:00,
2013-06-13 22:17:00,69.1,67.0,29.78,SW,214,3.0,8.0,93,0.00,,,0.27,Wunderground v.1.15,2013-06-14 02:17:00,
2013-06-13 22:22:00,69.1,67.0,29.78,SSW,204,3.0,4.0,93,0.00,,,0.27,Wunderground v.1.15,2013-06-14 02:22:00,
2013-06-13 22:27:00,69.1,67.0,29.78,SW,224,0.0,9.0,93,0.00,,,0.27,Wunderground v.1.15,2013-06-14 02:27:00,
2013-06-13 22:32:00,69.2,66.8,29.79,WSW,242,5.0,6.0,92,0.00,,,0.27,Wunderground v.1.15,2013-06-14 02:32:00,
2013-06-13 22:38:00,69.2,66.8,29.79,SW,215,0.0,6.0,92,0.00,,,0.27,Wunderground v.1.15,2013-06-14 02:38:00,
2013-06-13 22:43:00,69.1,66.7,29.79,WSW,255,1.0,2.0,92,0.00,,,0.27,Wunderground v.1.15,2013-06-14 02:43:00,
2013-06-13 22:48:00,69.1,66.7,29.79,SW,232,0.0,5.0,92,0.00,,,0.27,Wunderground v.1.15,2013-06-14 02:48:00,
2013-06-13 22:52:00,69.1,66.7,29.80,West,274,0.0,5.0,92,0.00,,,0.27,Wunderground v.1.15,2013-06-14 02:52:00,
2013-06-13 22:57:00,69.1,66.7,29.80,SW,229,0.0,5.0,92,0.00,,,0.27,Wunderground v.1.15,2013-06-14 02:57:00,
2013-06-13 23:03:00,69.0,66.6,29.80,SSW,213,0.0,6.0,92,0.00,,,0.27,Wunderground v.1.15,2013-06-14 03:03:00,
2013-06-13 23:07:00,69.0,66.6,29.80,SW,225,2.0,6.0,92,0.00,,,0.27,Wunderground v.1.15,2013-06-14 03:07:00,
2013-06-13 23:13:00,69.0,66.6,29.80,SSW,209,2.0,6.0,92,0.00,,,0.27,Wunderground v.1.15,2013-06-14 03:13:00,
2013-06-13 23:18:00,68.9,66.5,29.80,SSW,213,0.0,6.0,92,0.00,,,0.27,Wunderground v.1.15,2013-06-14 03:18:00,
2013-06-13 23:23:00,68.8,66.4,29.80,SSW,211,0.0,4.0,92,0.00,,,0.27,Wunderground v.1.15,2013-06-14 03:23:00,
2013-06-13 23:28:00,68.7,66.3,29.80,SSW,211,0.0,4.0,92,0.00,,,0.27,Wunderground v.1.15,2013-06-14 03:28:00,
2013-06-13 23:33:00,68.5,66.1,29.81,WSW,257,0.0,6.0,92,0.00,,,0.27,Wunderground v.1.15,2013-06-14 03:33:00,
2013-06-13 23:38:00,68.4,66.0,29.81,WSW,242,0.0,6.0,92,0.00,,,0.27,Wunderground v.1.15,2013-06-14 03:38:00,
2013-06-13 23:43:00,68.3,65.9,29.80,WSW,242,0.0,3.0,92,0.00,,,0.27,Wunderground v.1.15,2013-06-14 03:43:00,
2013-06-13 23:48:00,68.2,65.8,29.81,SW,232,0.0,5.0,92,0.00,,,0.27,Wunderground v.1.15,2013-06-14 03:48:00,
2013-06-13 23:53:00,68.1,66.0,29.81,SSW,212,2.0,4.0,93,0.00,,,0.27,Wunderground v.1.15,2013-06-14 03:53:00,
2013-06-13 23:58:00,68.0,65.9,29.81,SSW,213,0.0,4.0,93,0.00,,,0.27,Wunderground v.1.15,2013-06-14 03:58:00,